TAF GCFV
GCFV 090800Z 0909/1009 03020KT 9999 BKN025 TX21/0913Z TN17/1006Z PROB40 TEMPO 0912/1003 03020G30KT=
METAR GCFV
GCFV 091000Z 04025KT 360V060 9999 FEW025 BKN040 19/14 Q1025=
GCFV 090930Z 03020KT 9999 FEW025 BKN040 19/14 Q1025=
GCFV 090900Z 03019KT 9999 FEW025 BKN040 19/13 Q1024=
GCFV 090830Z 03021KT 9999 FEW025 BKN040 19/14 Q1024=
GCFV 090800Z 03018KT 9999 FEW025 BKN040 19/15 Q1024=
WC GCFV
WS GCFV
WV GCFV